Flight Track Log - Related Links

Times and Time Zones

All times are in EDT time to prevent confusion due to time zone crossing. See the OPT404 flight status page for this flight to view local times or setup timezone preferences in your user account.

Time Position Orientation Groundspeed Altitude Reporting Facility
EDT Latitude Longitude Course Direction KTS MPH feet Rate Location/Type
Thu 10:48:53 PM 25.9036 -97.3964 78° East 150 173 2,100  Level Houston Center
Thu 10:49:53 PM 25.9639 -97.3903 North 242 278 4,800 2,678 Climbing Houston Center
Thu 10:50:54 PM 26.0336 -97.3925 358° North 259 298 7,500 2,354 Climbing Houston Center
Thu 10:52:03 PM 26.1264 -97.3939 359° North 284 327 9,900 2,169 Climbing Houston Center
Thu 10:53:04 PM 26.2122 -97.4044 354° North 314 361 12,200 2,557 Climbing Houston Center
Thu 10:54:05 PM 26.3000 -97.4303 345° North 306 352 15,100 2,508 Climbing Houston Center
Thu 10:55:06 PM 26.3808 -97.4531 346° North 302 348 17,300 2,115 Climbing Houston Center
Thu 10:56:07 PM 26.4667 -97.4794 345° North 319 367 19,400 1,820 Climbing Houston Center
Thu 10:57:08 PM 26.5578 -97.5064 345° North 336 387 21,000 1,820 Climbing Houston Center
Thu 10:58:09 PM 26.6581 -97.5372 345° North 345 397 23,100 1,770 Climbing Houston Center
Thu 10:59:10 PM 26.7525 -97.5661 345° North 356 410 24,600 1,377 Climbing Houston Center
Thu 11:00:11 PM 26.8453 -97.5950 344° North 371 427 25,900 1,525 Climbing Houston Center
Thu 11:01:12 PM 26.9508 -97.6228 347° North 387 445 27,700 1,623 Climbing Houston Center
Thu 11:02:13 PM 27.0511 -97.6531 345° North 374 430 29,200 1,525 Climbing Houston Center
Thu 11:03:14 PM 27.1564 -97.6875 344° North 367 422 30,800 1,525 Climbing Houston Center
Thu 11:04:15 PM 27.2547 -97.7178 345° North 363 418 32,300 1,082 Climbing Houston Center
Thu 11:05:16 PM 27.3594 -97.7503 345° North 386 444 33,000 344 Climbing Houston Center
Thu 11:06:17 PM 27.4678 -97.7822 345° North 399 459 33,000  Level Houston Center
Thu 11:07:18 PM 27.5758 -97.8150 345° North 402 463 33,000 49 Level Houston Center
Thu 11:08:19 PM 27.6825 -97.8481 345° North 399 459 33,100 738 Climbing Houston Center
Thu 11:09:20 PM 27.7728 -97.9142 327° Northwest 389 448 34,500 1,279 Climbing Houston Center
Thu 11:10:21 PM 27.8558 -97.9897 321° Northwest 384 442 35,700 836 Climbing Houston Center
Thu 11:11:22 PM 27.9403 -98.0681 321° Northwest 389 448 36,200 885 Climbing Houston Center
Thu 11:12:23 PM 28.0431 -98.1608 321° Northwest 394 453 37,500 1,131 Climbing Houston Center
Thu 11:13:24 PM 28.1489 -98.2003 342° North 403 464 38,500 984 Climbing Houston Center
Thu 11:14:25 PM 28.2636 -98.2211 351° North 413 475 39,500 984 Climbing Houston Center
Thu 11:15:26 PM 28.3750 -98.2389 352° North 407 468 40,500 976 Climbing Houston Center
Thu 11:16:28 PM 28.4928 -98.2600 351° North 401 461 41,500 976 Climbing Houston Center
Thu 11:17:29 PM 28.6014 -98.2797 351° North 395 455 42,500 738 Climbing Houston Center
Thu 11:18:30 PM 28.7142 -98.2989 352° North 388 447 43,000 246 Climbing Houston Center
Thu 11:19:31 PM 28.8222 -98.3183 351° North 393 452 43,000  Level Houston Center
Thu 11:20:32 PM 28.9311 -98.3369 351° North 395 455 43,000  Level Houston Center
Thu 11:21:33 PM 29.0469 -98.3569 351° North 388 447 43,000  Level Houston Center
Thu 11:22:34 PM 29.1536 -98.3758 351° North 387 445 43,000  Level Houston Center
Thu 11:23:35 PM 29.2608 -98.3792 358° North 385 443 43,000  Level Houston Center
Thu 11:24:36 PM 29.3686 -98.3686 North 388 447 43,000  Level Houston Center
Thu 11:25:37 PM 29.4758 -98.3569 North 387 445 43,000  Level Houston Center
Thu 11:26:38 PM 29.5728 -98.3547 North 393 452 43,000  Level Houston Center
Thu 11:27:39 PM 29.7014 -98.3411 North 397 457 43,000 -393 Level Houston Center
Thu 11:28:40 PM 29.8089 -98.3322 North 388 447 42,200 -885 Descending Houston Center
Thu 11:29:41 PM 29.9306 -98.3219 North 406 467 41,200 -984 Descending Houston Center
Thu 11:30:42 PM 30.0475 -98.3114 North 419 482 40,200 -1,033 Descending Houston Center
Thu 11:31:43 PM 30.1642 -98.3014 North 419 482 39,100 -590 Descending Houston Center
Thu 11:32:44 PM 30.2783 -98.2919 North 411 473 39,000 -49 Descending Houston Center
Thu 11:33:45 PM 30.3897 -98.2822 North 396 456 39,000  Level Houston Center
Thu 11:34:46 PM 30.5003 -98.2725 North 393 452 39,000  Level Houston Center
Thu 11:35:47 PM 30.6128 -98.2631 North 397 457 39,000  Level Houston Center
Thu 11:36:48 PM 30.7286 -98.2525 North 407 468 39,000  Level Houston Center
Thu 11:37:49 PM 30.8453 -98.2431 North 412 474 39,000  Level Houston Center
Thu 11:38:50 PM 30.9619 -98.2322 North 413 475 39,000 -295 Level Houston Center
Thu 11:39:51 PM 31.0783 -98.2222 North 412 474 38,400 -606 Descending Houston Center
Thu 11:40:29 PM 31.1397 -98.2022 16° North 429 494 38,000 -612 Descending Fort Worth Center
Thu 11:41:29 PM 31.2467 -98.1350 28° Northeast 422 486 37,400 -600 Descending Fort Worth Center
Thu 11:42:29 PM 31.3472 -98.0678 30° Northeast 417 480 36,800 -600 Descending Fort Worth Center
Thu 11:43:29 PM 31.4456 -98.0075 28° Northeast 405 466 36,200 -600 Descending Fort Worth Center
Thu 11:44:29 PM 31.5442 -97.9447 28° Northeast 399 459 35,600 -1,900 Descending Fort Worth Center
Thu 11:45:29 PM 31.6592 -97.8772 27° Northeast 399 459 32,400 -3,400 Descending Fort Worth Center
Thu 11:46:29 PM 31.7681 -97.8092 28° Northeast 421 484 28,800 -3,500 Descending Fort Worth Center
Thu 11:47:29 PM 31.8683 -97.7461 28° Northeast 423 487 25,400 -3,200 Descending Fort Worth Center
Thu 11:48:29 PM 31.9625 -97.6875 28° Northeast 389 448 22,400 -2,850 Descending Fort Worth Center
Thu 11:49:29 PM 32.0461 -97.6339 29° Northeast 353 406 19,700 -2,750 Descending Fort Worth Center
Thu 11:50:29 PM 32.1256 -97.5828 29° Northeast 330 380 16,900 -2,600 Descending Fort Worth Center
Thu 11:51:29 PM 32.2050 -97.5336 28° Northeast 319 367 14,500 -2,400 Descending Fort Worth Center
Thu 11:52:29 PM 32.2781 -97.4847 29° Northeast 306 352 12,100 -1,450 Descending Fort Worth Center
Thu 11:53:29 PM 32.3344 -97.4233 43° Northeast 281 323 11,600 -1,000 Descending Fort Worth Center
Thu 11:54:29 PM 32.3844 -97.3494 51° Northeast 276 318 10,100 -800 Descending Fort Worth Center
Thu 11:55:29 PM 32.4303 -97.2806 52° Northeast 276 318 10,000 -50 Descending Fort Worth Center
Thu 11:56:29 PM 32.4825 -97.2067 50° Northeast 281 323 10,000 -200 Level Fort Worth Center
Thu 11:57:29 PM 32.5242 -97.1325 56° Northeast 288 331 9,600 -1,000 Descending Fort Worth Center
Thu 11:58:29 PM 32.5656 -97.0436 61° Northeast 278 320 8,000 -800 Descending Fort Worth Center
Thu 11:59:29 PM 32.5947 -96.9869 59° Northeast 245 282 8,000 -250 Level Fort Worth Center
Fri 12:00:29 AM 32.6319 -96.9175 58° Northeast 229 264 7,500 -944 Descending Fort Worth Center
Fri 12:00:58 AM 32.6500 -96.8833 58° Northeast 226 260 6,600 -1,832 Descending Dallas / Fort Worth TRACON
Fri 12:02:04 AM 32.6833 -96.8000 65° Northeast 228 262 4,600 -1,650 Descending Dallas / Fort Worth TRACON
Fri 12:02:58 AM 32.7167 -96.7500 52° Northeast 193 222 3,300 -842 Descending Dallas / Fort Worth TRACON
Fri 12:03:58 AM 32.7500 -96.7333 23° Northeast 132 152 3,000 -476 Descending Dallas / Fort Worth TRACON
Fri 12:05:04 AM 32.7667 -96.7667 301° West 135 155 2,300 -714 Descending Dallas / Fort Worth TRACON
Fri 12:06:04 AM 32.8000 -96.8000 320° Northwest 127 146 1,500 -750 Descending Dallas / Fort Worth TRACON
Fri 12:07:04 AM 32.8167 -96.8333 301° West 112 129 800 -700 Descending Dallas / Fort Worth TRACON

Login

Don't have an account? Register now (free) for customized features, flight alerts, and more!